sensor_id;sensor_type;location;lat;lon;timestamp;P1;durP1;ratioP1;P2;durP2;ratioP2
15958;SDS011;8078;47.822;9.402;2023-08-01T00:01:50;7.68;;;3.80;;
15958;SDS011;8078;47.822;9.402;2023-08-01T00:04:15;8.55;;;4.05;;
15958;SDS011;8078;47.822;9.402;2023-08-01T00:06:41;7.28;;;4.15;;
15958;SDS011;8078;47.822;9.402;2023-08-01T00:09:07;8.68;;;3.97;;
15958;SDS011;8078;47.822;9.402;2023-08-01T00:11:32;7.50;;;4.28;;
15958;SDS011;8078;47.822;9.402;2023-08-01T00:13:58;6.13;;;3.90;;
15958;SDS011;8078;47.822;9.402;2023-08-01T00:16:23;6.93;;;4.25;;
15958;SDS011;8078;47.822;9.402;2023-08-01T00:18:49;5.53;;;3.72;;
15958;SDS011;8078;47.822;9.402;2023-08-01T00:21:15;5.57;;;3.85;;
15958;SDS011;8078;47.822;9.402;2023-08-01T00:23:40;8.35;;;4.43;;
15958;SDS011;8078;47.822;9.402;2023-08-01T00:26:06;4.97;;;3.72;;
15958;SDS011;8078;47.822;9.402;2023-08-01T00:28:32;7.57;;;4.28;;
15958;SDS011;8078;47.822;9.402;2023-08-01T00:31:07;4.72;;;3.55;;
15958;SDS011;8078;47.822;9.402;2023-08-01T00:33:36;6.15;;;3.80;;
15958;SDS011;8078;47.822;9.402;2023-08-01T00:36:02;7.30;;;4.03;;
15958;SDS011;8078;47.822;9.402;2023-08-01T00:38:27;5.45;;;3.20;;
15958;SDS011;8078;47.822;9.402;2023-08-01T00:40:53;6.28;;;4.20;;
15958;SDS011;8078;47.822;9.402;2023-08-01T00:43:19;8.02;;;3.85;;
15958;SDS011;8078;47.822;9.402;2023-08-01T00:45:45;5.57;;;3.70;;
15958;SDS011;8078;47.822;9.402;2023-08-01T00:48:11;4.38;;;3.05;;
15958;SDS011;8078;47.822;9.402;2023-08-01T00:50:37;6.07;;;3.53;;
15958;SDS011;8078;47.822;9.402;2023-08-01T00:53:03;6.50;;;3.97;;
15958;SDS011;8078;47.822;9.402;2023-08-01T00:55:30;4.97;;;3.60;;
15958;SDS011;8078;47.822;9.402;2023-08-01T00:57:58;5.63;;;3.78;;
15958;SDS011;8078;47.822;9.402;2023-08-01T01:00:23;5.80;;;4.05;;
15958;SDS011;8078;47.822;9.402;2023-08-01T01:02:49;5.45;;;3.88;;
15958;SDS011;8078;47.822;9.402;2023-08-01T01:05:14;5.93;;;3.88;;
15958;SDS011;8078;47.822;9.402;2023-08-01T01:07:40;6.82;;;4.40;;
15958;SDS011;8078;47.822;9.402;2023-08-01T01:10:06;6.53;;;3.85;;
15958;SDS011;8078;47.822;9.402;2023-08-01T01:12:32;4.90;;;3.65;;
15958;SDS011;8078;47.822;9.402;2023-08-01T01:14:57;7.25;;;4.03;;
15958;SDS011;8078;47.822;9.402;2023-08-01T01:17:23;5.50;;;3.97;;
15958;SDS011;8078;47.822;9.402;2023-08-01T01:19:49;6.18;;;3.88;;
15958;SDS011;8078;47.822;9.402;2023-08-01T01:22:17;7.88;;;4.20;;
15958;SDS011;8078;47.822;9.402;2023-08-01T01:24:44;6.85;;;4.03;;
15958;SDS011;8078;47.822;9.402;2023-08-01T01:27:11;8.82;;;4.30;;
15958;SDS011;8078;47.822;9.402;2023-08-01T01:29:37;5.10;;;3.75;;
15958;SDS011;8078;47.822;9.402;2023-08-01T01:32:05;7.65;;;4.25;;
15958;SDS011;8078;47.822;9.402;2023-08-01T01:34:31;5.78;;;4.15;;
15958;SDS011;8078;47.822;9.402;2023-08-01T01:36:56;6.28;;;4.20;;
15958;SDS011;8078;47.822;9.402;2023-08-01T01:39:22;7.88;;;4.45;;
15958;SDS011;8078;47.822;9.402;2023-08-01T01:41:47;7.65;;;4.35;;
15958;SDS011;8078;47.822;9.402;2023-08-01T01:44:13;6.72;;;4.45;;
15958;SDS011;8078;47.822;9.402;2023-08-01T01:46:38;8.73;;;4.50;;
15958;SDS011;8078;47.822;9.402;2023-08-01T01:49:04;7.40;;;4.57;;
15958;SDS011;8078;47.822;9.402;2023-08-01T01:51:30;6.03;;;4.53;;
15958;SDS011;8078;47.822;9.402;2023-08-01T01:53:56;10.23;;;4.40;;
15958;SDS011;8078;47.822;9.402;2023-08-01T01:56:21;6.88;;;4.82;;
15958;SDS011;8078;47.822;9.402;2023-08-01T01:58:47;6.60;;;4.53;;
15958;SDS011;8078;47.822;9.402;2023-08-01T02:01:12;7.30;;;4.30;;
15958;SDS011;8078;47.822;9.402;2023-08-01T02:03:38;8.75;;;4.18;;
15958;SDS011;8078;47.822;9.402;2023-08-01T02:06:04;7.47;;;4.45;;
15958;SDS011;8078;47.822;9.402;2023-08-01T02:08:29;6.97;;;4.55;;
15958;SDS011;8078;47.822;9.402;2023-08-01T02:10:55;7.50;;;4.63;;
15958;SDS011;8078;47.822;9.402;2023-08-01T02:13:23;8.80;;;4.57;;
15958;SDS011;8078;47.822;9.402;2023-08-01T02:15:52;7.35;;;4.85;;
15958;SDS011;8078;47.822;9.402;2023-08-01T02:18:19;8.63;;;4.72;;
15958;SDS011;8078;47.822;9.402;2023-08-01T02:20:44;7.45;;;4.22;;
15958;SDS011;8078;47.822;9.402;2023-08-01T02:23:10;8.48;;;4.32;;
15958;SDS011;8078;47.822;9.402;2023-08-01T02:25:39;6.43;;;4.15;;
15958;SDS011;8078;47.822;9.402;2023-08-01T02:28:05;8.57;;;4.53;;
15958;SDS011;8078;47.822;9.402;2023-08-01T02:30:31;7.03;;;4.43;;
15958;SDS011;8078;47.822;9.402;2023-08-01T02:32:57;6.30;;;4.43;;
15958;SDS011;8078;47.822;9.402;2023-08-01T02:35:22;7.75;;;5.05;;
15958;SDS011;8078;47.822;9.402;2023-08-01T02:37:48;7.13;;;4.70;;
15958;SDS011;8078;47.822;9.402;2023-08-01T02:40:13;8.88;;;4.68;;
15958;SDS011;8078;47.822;9.402;2023-08-01T02:42:39;7.88;;;4.90;;
15958;SDS011;8078;47.822;9.402;2023-08-01T02:45:05;8.00;;;5.63;;
15958;SDS011;8078;47.822;9.402;2023-08-01T02:47:30;6.75;;;4.88;;
15958;SDS011;8078;47.822;9.402;2023-08-01T02:49:56;8.10;;;4.97;;
15958;SDS011;8078;47.822;9.402;2023-08-01T02:52:22;7.35;;;5.20;;
15958;SDS011;8078;47.822;9.402;2023-08-01T02:54:47;9.73;;;5.03;;
15958;SDS011;8078;47.822;9.402;2023-08-01T02:57:13;7.32;;;4.75;;
15958;SDS011;8078;47.822;9.402;2023-08-01T02:59:38;8.80;;;5.15;;
15958;SDS011;8078;47.822;9.402;2023-08-01T03:02:04;9.45;;;5.38;;
15958;SDS011;8078;47.822;9.402;2023-08-01T03:04:29;6.93;;;4.78;;
15958;SDS011;8078;47.822;9.402;2023-08-01T03:06:55;8.27;;;4.45;;
15958;SDS011;8078;47.822;9.402;2023-08-01T03:09:20;6.32;;;4.47;;
15958;SDS011;8078;47.822;9.402;2023-08-01T03:11:46;6.20;;;4.85;;
15958;SDS011;8078;47.822;9.402;2023-08-01T03:14:11;6.78;;;4.75;;
15958;SDS011;8078;47.822;9.402;2023-08-01T03:16:37;5.97;;;4.75;;
15958;SDS011;8078;47.822;9.402;2023-08-01T03:19:02;7.65;;;4.55;;
15958;SDS011;8078;47.822;9.402;2023-08-01T03:21:32;6.32;;;5.03;;
15958;SDS011;8078;47.822;9.402;2023-08-01T03:23:58;8.18;;;4.78;;
15958;SDS011;8078;47.822;9.402;2023-08-01T03:26:24;9.13;;;4.97;;
15958;SDS011;8078;47.822;9.402;2023-08-01T03:28:49;6.88;;;5.25;;
15958;SDS011;8078;47.822;9.402;2023-08-01T03:31:15;8.35;;;4.90;;
15958;SDS011;8078;47.822;9.402;2023-08-01T03:33:41;8.65;;;5.20;;
15958;SDS011;8078;47.822;9.402;2023-08-01T03:36:06;8.95;;;5.13;;
15958;SDS011;8078;47.822;9.402;2023-08-01T03:38:32;9.55;;;4.47;;
15958;SDS011;8078;47.822;9.402;2023-08-01T03:40:57;6.78;;;5.00;;
15958;SDS011;8078;47.822;9.402;2023-08-01T03:43:23;12.00;;;5.55;;
15958;SDS011;8078;47.822;9.402;2023-08-01T03:45:49;7.15;;;5.03;;
15958;SDS011;8078;47.822;9.402;2023-08-01T03:48:15;6.22;;;5.38;;
15958;SDS011;8078;47.822;9.402;2023-08-01T03:50:40;7.43;;;4.75;;
15958;SDS011;8078;47.822;9.402;2023-08-01T03:53:06;6.60;;;4.78;;
15958;SDS011;8078;47.822;9.402;2023-08-01T03:55:32;8.32;;;5.50;;
15958;SDS011;8078;47.822;9.402;2023-08-01T03:57:58;7.32;;;5.35;;
15958;SDS011;8078;47.822;9.402;2023-08-01T04:00:23;8.55;;;4.78;;
15958;SDS011;8078;47.822;9.402;2023-08-01T04:02:49;7.38;;;5.00;;
15958;SDS011;8078;47.822;9.402;2023-08-01T04:05:14;9.02;;;5.55;;
15958;SDS011;8078;47.822;9.402;2023-08-01T04:07:40;7.28;;;4.53;;
15958;SDS011;8078;47.822;9.402;2023-08-01T04:10:06;9.48;;;5.25;;
15958;SDS011;8078;47.822;9.402;2023-08-01T04:12:33;8.10;;;5.28;;
15958;SDS011;8078;47.822;9.402;2023-08-01T04:14:59;7.85;;;5.15;;
15958;SDS011;8078;47.822;9.402;2023-08-01T04:17:25;7.18;;;5.05;;
15958;SDS011;8078;47.822;9.402;2023-08-01T04:19:50;6.88;;;5.03;;
15958;SDS011;8078;47.822;9.402;2023-08-01T04:22:16;8.02;;;4.95;;
15958;SDS011;8078;47.822;9.402;2023-08-01T04:24:41;8.75;;;5.50;;
15958;SDS011;8078;47.822;9.402;2023-08-01T04:27:07;6.65;;;4.97;;
15958;SDS011;8078;47.822;9.402;2023-08-01T04:29:33;7.30;;;5.05;;
15958;SDS011;8078;47.822;9.402;2023-08-01T04:31:59;9.48;;;4.97;;
15958;SDS011;8078;47.822;9.402;2023-08-01T04:34:24;6.82;;;5.05;;
15958;SDS011;8078;47.822;9.402;2023-08-01T04:36:50;8.38;;;4.57;;
15958;SDS011;8078;47.822;9.402;2023-08-01T04:39:16;8.15;;;5.65;;
15958;SDS011;8078;47.822;9.402;2023-08-01T04:41:41;8.88;;;5.43;;
15958;SDS011;8078;47.822;9.402;2023-08-01T04:44:07;6.57;;;4.80;;
15958;SDS011;8078;47.822;9.402;2023-08-01T04:46:32;7.38;;;5.15;;
15958;SDS011;8078;47.822;9.402;2023-08-01T04:48:58;5.78;;;4.50;;
15958;SDS011;8078;47.822;9.402;2023-08-01T04:51:24;6.90;;;5.30;;
15958;SDS011;8078;47.822;9.402;2023-08-01T04:53:50;6.90;;;4.90;;
15958;SDS011;8078;47.822;9.402;2023-08-01T04:56:15;8.30;;;5.10;;
15958;SDS011;8078;47.822;9.402;2023-08-01T04:58:41;8.07;;;5.13;;
15958;SDS011;8078;47.822;9.402;2023-08-01T05:01:06;7.88;;;5.30;;
15958;SDS011;8078;47.822;9.402;2023-08-01T05:03:32;9.35;;;5.32;;
15958;SDS011;8078;47.822;9.402;2023-08-01T05:05:57;8.13;;;4.78;;
15958;SDS011;8078;47.822;9.402;2023-08-01T05:08:23;7.95;;;4.32;;
15958;SDS011;8078;47.822;9.402;2023-08-01T05:10:48;8.52;;;5.03;;
15958;SDS011;8078;47.822;9.402;2023-08-01T05:13:14;9.05;;;4.75;;
15958;SDS011;8078;47.822;9.402;2023-08-01T05:15:39;6.95;;;5.07;;
15958;SDS011;8078;47.822;9.402;2023-08-01T05:18:05;6.65;;;4.60;;
15958;SDS011;8078;47.822;9.402;2023-08-01T05:20:31;5.78;;;5.10;;
15958;SDS011;8078;47.822;9.402;2023-08-01T05:22:58;10.73;;;5.28;;
15958;SDS011;8078;47.822;9.402;2023-08-01T05:25:24;6.93;;;4.78;;
15958;SDS011;8078;47.822;9.402;2023-08-01T05:27:50;7.63;;;4.70;;
15958;SDS011;8078;47.822;9.402;2023-08-01T05:30:15;7.70;;;5.25;;
15958;SDS011;8078;47.822;9.402;2023-08-01T05:32:41;7.03;;;4.80;;
15958;SDS011;8078;47.822;9.402;2023-08-01T05:35:08;7.18;;;4.70;;
15958;SDS011;8078;47.822;9.402;2023-08-01T05:37:34;8.07;;;5.05;;
15958;SDS011;8078;47.822;9.402;2023-08-01T05:40:02;8.93;;;4.35;;
15958;SDS011;8078;47.822;9.402;2023-08-01T05:42:28;7.07;;;4.75;;
15958;SDS011;8078;47.822;9.402;2023-08-01T05:44:54;6.15;;;3.67;;
15958;SDS011;8078;47.822;9.402;2023-08-01T05:47:19;8.38;;;4.78;;
15958;SDS011;8078;47.822;9.402;2023-08-01T05:49:47;6.78;;;4.97;;
15958;SDS011;8078;47.822;9.402;2023-08-01T05:52:13;8.68;;;4.50;;
15958;SDS011;8078;47.822;9.402;2023-08-01T05:54:38;7.05;;;4.25;;
15958;SDS011;8078;47.822;9.402;2023-08-01T05:57:04;6.88;;;4.05;;
15958;SDS011;8078;47.822;9.402;2023-08-01T05:59:30;7.10;;;3.95;;
15958;SDS011;8078;47.822;9.402;2023-08-01T06:01:56;6.38;;;4.25;;
15958;SDS011;8078;47.822;9.402;2023-08-01T06:04:21;6.80;;;4.70;;
15958;SDS011;8078;47.822;9.402;2023-08-01T06:06:47;6.13;;;4.18;;
15958;SDS011;8078;47.822;9.402;2023-08-01T06:09:13;8.57;;;4.85;;
15958;SDS011;8078;47.822;9.402;2023-08-01T06:11:38;6.90;;;3.97;;
15958;SDS011;8078;47.822;9.402;2023-08-01T06:14:04;5.50;;;4.15;;
15958;SDS011;8078;47.822;9.402;2023-08-01T06:16:29;5.88;;;4.40;;
15958;SDS011;8078;47.822;9.402;2023-08-01T06:18:55;5.95;;;4.15;;
15958;SDS011;8078;47.822;9.402;2023-08-01T06:21:21;6.35;;;3.67;;
15958;SDS011;8078;47.822;9.402;2023-08-01T06:23:47;5.85;;;3.97;;
15958;SDS011;8078;47.822;9.402;2023-08-01T06:26:12;8.27;;;4.40;;
15958;SDS011;8078;47.822;9.402;2023-08-01T06:28:40;5.45;;;3.75;;
15958;SDS011;8078;47.822;9.402;2023-08-01T06:31:06;5.95;;;4.10;;
15958;SDS011;8078;47.822;9.402;2023-08-01T06:33:31;8.02;;;4.22;;
15958;SDS011;8078;47.822;9.402;2023-08-01T06:35:57;9.68;;;4.47;;
15958;SDS011;8078;47.822;9.402;2023-08-01T06:38:23;8.07;;;4.03;;
15958;SDS011;8078;47.822;9.402;2023-08-01T06:40:48;7.63;;;5.00;;
15958;SDS011;8078;47.822;9.402;2023-08-01T06:43:14;8.50;;;4.00;;
15958;SDS011;8078;47.822;9.402;2023-08-01T06:45:39;7.38;;;4.55;;
15958;SDS011;8078;47.822;9.402;2023-08-01T06:48:05;8.73;;;4.82;;
15958;SDS011;8078;47.822;9.402;2023-08-01T06:50:30;8.25;;;4.85;;
15958;SDS011;8078;47.822;9.402;2023-08-01T06:52:56;7.38;;;4.43;;
15958;SDS011;8078;47.822;9.402;2023-08-01T06:55:22;8.30;;;5.60;;
15958;SDS011;8078;47.822;9.402;2023-08-01T06:57:47;7.47;;;5.00;;
15958;SDS011;8078;47.822;9.402;2023-08-01T07:00:13;10.52;;;5.07;;
15958;SDS011;8078;47.822;9.402;2023-08-01T07:02:38;6.00;;;4.88;;
15958;SDS011;8078;47.822;9.402;2023-08-01T07:05:04;8.02;;;5.72;;
15958;SDS011;8078;47.822;9.402;2023-08-01T07:07:30;9.80;;;5.65;;
15958;SDS011;8078;47.822;9.402;2023-08-01T07:09:55;12.20;;;5.85;;
15958;SDS011;8078;47.822;9.402;2023-08-01T07:12:21;7.50;;;5.45;;
15958;SDS011;8078;47.822;9.402;2023-08-01T07:14:47;9.20;;;5.50;;
15958;SDS011;8078;47.822;9.402;2023-08-01T07:17:12;9.52;;;5.55;;
15958;SDS011;8078;47.822;9.402;2023-08-01T07:19:38;11.25;;;6.00;;
15958;SDS011;8078;47.822;9.402;2023-08-01T07:22:03;10.88;;;6.25;;
15958;SDS011;8078;47.822;9.402;2023-08-01T07:24:29;12.40;;;5.20;;
15958;SDS011;8078;47.822;9.402;2023-08-01T07:26:54;12.93;;;5.82;;
15958;SDS011;8078;47.822;9.402;2023-08-01T07:29:20;10.63;;;6.65;;
15958;SDS011;8078;47.822;9.402;2023-08-01T07:31:45;8.88;;;5.55;;
15958;SDS011;8078;47.822;9.402;2023-08-01T07:34:11;12.20;;;5.70;;
15958;SDS011;8078;47.822;9.402;2023-08-01T07:36:37;11.02;;;6.30;;
15958;SDS011;8078;47.822;9.402;2023-08-01T07:39:02;8.48;;;5.18;;
15958;SDS011;8078;47.822;9.402;2023-08-01T07:41:28;9.13;;;5.20;;
15958;SDS011;8078;47.822;9.402;2023-08-01T07:43:54;11.40;;;5.72;;
15958;SDS011;8078;47.822;9.402;2023-08-01T07:46:20;12.60;;;5.85;;
15958;SDS011;8078;47.822;9.402;2023-08-01T07:48:45;8.60;;;6.25;;
15958;SDS011;8078;47.822;9.402;2023-08-01T07:51:11;8.45;;;5.50;;
15958;SDS011;8078;47.822;9.402;2023-08-01T07:53:37;10.07;;;6.15;;
15958;SDS011;8078;47.822;9.402;2023-08-01T07:56:02;10.88;;;5.53;;
15958;SDS011;8078;47.822;9.402;2023-08-01T07:58:29;13.50;;;6.60;;
15958;SDS011;8078;47.822;9.402;2023-08-01T08:00:55;10.40;;;6.07;;
15958;SDS011;8078;47.822;9.402;2023-08-01T08:03:20;11.15;;;6.43;;
15958;SDS011;8078;47.822;9.402;2023-08-01T08:05:48;9.65;;;5.68;;
15958;SDS011;8078;47.822;9.402;2023-08-01T08:08:14;8.13;;;5.70;;
15958;SDS011;8078;47.822;9.402;2023-08-01T08:10:40;12.88;;;6.93;;
15958;SDS011;8078;47.822;9.402;2023-08-01T08:13:05;11.52;;;6.70;;
15958;SDS011;8078;47.822;9.402;2023-08-01T08:15:31;10.55;;;6.70;;
15958;SDS011;8078;47.822;9.402;2023-08-01T08:17:59;11.80;;;7.18;;
15958;SDS011;8078;47.822;9.402;2023-08-01T08:20:26;12.32;;;6.65;;
15958;SDS011;8078;47.822;9.402;2023-08-01T08:22:51;10.60;;;7.20;;
15958;SDS011;8078;47.822;9.402;2023-08-01T08:25:17;10.57;;;6.95;;
15958;SDS011;8078;47.822;9.402;2023-08-01T08:27:43;12.05;;;6.95;;
15958;SDS011;8078;47.822;9.402;2023-08-01T08:30:08;12.95;;;6.78;;
15958;SDS011;8078;47.822;9.402;2023-08-01T08:32:35;12.15;;;7.15;;
15958;SDS011;8078;47.822;9.402;2023-08-01T08:35:00;12.07;;;7.78;;
15958;SDS011;8078;47.822;9.402;2023-08-01T08:37:26;12.25;;;6.68;;
15958;SDS011;8078;47.822;9.402;2023-08-01T08:39:52;9.93;;;7.30;;
15958;SDS011;8078;47.822;9.402;2023-08-01T08:42:18;10.68;;;6.55;;
15958;SDS011;8078;47.822;9.402;2023-08-01T08:44:44;14.63;;;7.70;;
15958;SDS011;8078;47.822;9.402;2023-08-01T08:47:14;9.93;;;6.57;;
15958;SDS011;8078;47.822;9.402;2023-08-01T08:49:43;17.33;;;8.15;;
15958;SDS011;8078;47.822;9.402;2023-08-01T08:52:10;13.75;;;6.97;;
15958;SDS011;8078;47.822;9.402;2023-08-01T08:54:36;11.15;;;7.00;;
15958;SDS011;8078;47.822;9.402;2023-08-01T08:57:05;13.32;;;6.47;;
15958;SDS011;8078;47.822;9.402;2023-08-01T08:59:31;12.23;;;6.68;;
15958;SDS011;8078;47.822;9.402;2023-08-01T09:01:58;10.85;;;5.70;;
15958;SDS011;8078;47.822;9.402;2023-08-01T09:04:26;9.73;;;5.88;;
15958;SDS011;8078;47.822;9.402;2023-08-01T09:06:53;7.68;;;6.28;;
15958;SDS011;8078;47.822;9.402;2023-08-01T09:09:23;10.82;;;6.63;;
15958;SDS011;8078;47.822;9.402;2023-08-01T09:11:52;9.80;;;6.50;;
15958;SDS011;8078;47.822;9.402;2023-08-01T09:14:18;14.80;;;7.45;;
15958;SDS011;8078;47.822;9.402;2023-08-01T09:16:45;36.13;;;8.80;;
15958;SDS011;8078;47.822;9.402;2023-08-01T09:19:15;13.63;;;7.82;;
15958;SDS011;8078;47.822;9.402;2023-08-01T09:21:42;11.68;;;7.45;;
15958;SDS011;8078;47.822;9.402;2023-08-01T09:24:12;47.22;;;10.50;;
15958;SDS011;8078;47.822;9.402;2023-08-01T09:26:42;11.30;;;7.53;;
15958;SDS011;8078;47.822;9.402;2023-08-01T09:29:08;11.07;;;8.43;;
15958;SDS011;8078;47.822;9.402;2023-08-01T09:31:37;12.63;;;7.53;;
15958;SDS011;8078;47.822;9.402;2023-08-01T09:34:04;16.15;;;8.00;;
15958;SDS011;8078;47.822;9.402;2023-08-01T09:36:31;9.48;;;7.05;;
15958;SDS011;8078;47.822;9.402;2023-08-01T09:39:01;12.52;;;7.70;;
15958;SDS011;8078;47.822;9.402;2023-08-01T09:41:28;13.77;;;8.07;;
15958;SDS011;8078;47.822;9.402;2023-08-01T09:43:55;11.13;;;7.30;;
15958;SDS011;8078;47.822;9.402;2023-08-01T09:46:21;13.57;;;7.90;;
15958;SDS011;8078;47.822;9.402;2023-08-01T09:48:47;23.38;;;9.77;;
15958;SDS011;8078;47.822;9.402;2023-08-01T09:51:13;19.88;;;9.80;;
15958;SDS011;8078;47.822;9.402;2023-08-01T09:53:50;36.20;;;11.23;;
15958;SDS011;8078;47.822;9.402;2023-08-01T09:56:25;119.80;;;14.23;;
15958;SDS011;8078;47.822;9.402;2023-08-01T09:58:52;16.43;;;9.07;;
15958;SDS011;8078;47.822;9.402;2023-08-01T10:01:20;17.00;;;9.05;;
15958;SDS011;8078;47.822;9.402;2023-08-01T10:03:48;15.57;;;8.90;;
15958;SDS011;8078;47.822;9.402;2023-08-01T10:06:21;280.90;;;24.70;;
15958;SDS011;8078;47.822;9.402;2023-08-01T10:08:49;604.15;;;43.60;;
15958;SDS011;8078;47.822;9.402;2023-08-01T10:11:19;664.22;;;48.45;;
15958;SDS011;8078;47.822;9.402;2023-08-01T10:13:47;534.10;;;46.30;;
15958;SDS011;8078;47.822;9.402;2023-08-01T10:16:13;353.42;;;35.05;;
15958;SDS011;8078;47.822;9.402;2023-08-01T10:18:43;554.10;;;49.43;;
15958;SDS011;8078;47.822;9.402;2023-08-01T10:21:13;289.47;;;32.37;;
15958;SDS011;8078;47.822;9.402;2023-08-01T10:23:41;749.07;;;62.43;;
15958;SDS011;8078;47.822;9.402;2023-08-01T10:26:09;564.17;;;49.70;;
15958;SDS011;8078;47.822;9.402;2023-08-01T10:28:40;905.07;;;68.23;;
15958;SDS011;8078;47.822;9.402;2023-08-01T10:31:10;1003.33;;;74.97;;
15958;SDS011;8078;47.822;9.402;2023-08-01T10:33:37;880.78;;;67.68;;
15958;SDS011;8078;47.822;9.402;2023-08-01T10:36:13;663.75;;;49.47;;
15958;SDS011;8078;47.822;9.402;2023-08-01T10:41:32;722.25;;;51.70;;
15958;SDS011;8078;47.822;9.402;2023-08-01T10:46:47;606.88;;;49.30;;
15958;SDS011;8078;47.822;9.402;2023-08-01T10:49:36;1014.97;;;73.85;;
15958;SDS011;8078;47.822;9.402;2023-08-01T10:52:03;973.65;;;74.63;;
15958;SDS011;8078;47.822;9.402;2023-08-01T10:54:40;145.65;;;25.27;;
15958;SDS011;8078;47.822;9.402;2023-08-01T10:57:05;518.40;;;47.78;;
15958;SDS011;8078;47.822;9.402;2023-08-01T10:59:31;667.28;;;60.13;;
15958;SDS011;8078;47.822;9.402;2023-08-01T11:01:58;30.98;;;16.88;;
15958;SDS011;8078;47.822;9.402;2023-08-01T11:04:24;210.40;;;27.75;;
15958;SDS011;8078;47.822;9.402;2023-08-01T11:06:51;228.38;;;30.83;;
15958;SDS011;8078;47.822;9.402;2023-08-01T11:09:18;91.63;;;24.23;;
15958;SDS011;8078;47.822;9.402;2023-08-01T11:11:46;497.83;;;45.67;;
15958;SDS011;8078;47.822;9.402;2023-08-01T11:14:15;402.70;;;40.55;;
15958;SDS011;8078;47.822;9.402;2023-08-01T11:16:40;947.85;;;80.72;;
15958;SDS011;8078;47.822;9.402;2023-08-01T11:19:16;38.67;;;18.73;;
15958;SDS011;8078;47.822;9.402;2023-08-01T11:21:46;42.97;;;20.05;;
15958;SDS011;8078;47.822;9.402;2023-08-01T11:24:12;50.65;;;20.83;;
15958;SDS011;8078;47.822;9.402;2023-08-01T11:26:41;851.70;;;69.10;;
15958;SDS011;8078;47.822;9.402;2023-08-01T11:29:07;306.20;;;33.78;;
15958;SDS011;8078;47.822;9.402;2023-08-01T11:31:34;536.95;;;48.75;;
15958;SDS011;8078;47.822;9.402;2023-08-01T11:33:59;128.77;;;25.40;;
15958;SDS011;8078;47.822;9.402;2023-08-01T11:36:26;30.80;;;18.00;;
15958;SDS011;8078;47.822;9.402;2023-08-01T11:38:53;34.83;;;18.05;;
15958;SDS011;8078;47.822;9.402;2023-08-01T11:41:20;28.55;;;16.23;;
15958;SDS011;8078;47.822;9.402;2023-08-01T11:43:47;45.20;;;17.25;;
15958;SDS011;8078;47.822;9.402;2023-08-01T11:46:12;27.58;;;14.50;;
15958;SDS011;8078;47.822;9.402;2023-08-01T11:48:38;24.20;;;13.75;;
15958;SDS011;8078;47.822;9.402;2023-08-01T11:51:04;30.73;;;15.93;;
15958;SDS011;8078;47.822;9.402;2023-08-01T11:53:30;24.27;;;13.48;;
15958;SDS011;8078;47.822;9.402;2023-08-01T11:56:02;16.70;;;10.32;;
15958;SDS011;8078;47.822;9.402;2023-08-01T11:58:29;18.92;;;12.48;;
15958;SDS011;8078;47.822;9.402;2023-08-01T12:01:02;13.65;;;9.98;;
15958;SDS011;8078;47.822;9.402;2023-08-01T12:03:28;12.02;;;6.82;;
15958;SDS011;8078;47.822;9.402;2023-08-01T12:06:03;7.47;;;6.03;;
15958;SDS011;8078;47.822;9.402;2023-08-01T12:08:31;7.97;;;5.93;;
15958;SDS011;8078;47.822;9.402;2023-08-01T12:10:59;6.45;;;4.93;;
15958;SDS011;8078;47.822;9.402;2023-08-01T12:13:25;7.93;;;5.28;;
15958;SDS011;8078;47.822;9.402;2023-08-01T12:15:54;6.40;;;4.30;;
15958;SDS011;8078;47.822;9.402;2023-08-01T12:18:25;9.00;;;4.38;;
15958;SDS011;8078;47.822;9.402;2023-08-01T12:20:52;6.35;;;4.40;;
15958;SDS011;8078;47.822;9.402;2023-08-01T12:23:18;5.55;;;4.00;;
15958;SDS011;8078;47.822;9.402;2023-08-01T12:25:44;7.07;;;4.28;;
15958;SDS011;8078;47.822;9.402;2023-08-01T12:28:10;4.97;;;3.20;;
15958;SDS011;8078;47.822;9.402;2023-08-01T12:30:38;2.45;;;2.22;;
15958;SDS011;8078;47.822;9.402;2023-08-01T12:33:06;3.28;;;2.35;;
15958;SDS011;8078;47.822;9.402;2023-08-01T12:35:32;3.53;;;2.30;;
15958;SDS011;8078;47.822;9.402;2023-08-01T12:37:58;3.03;;;2.13;;
15958;SDS011;8078;47.822;9.402;2023-08-01T12:40:23;4.07;;;2.50;;
15958;SDS011;8078;47.822;9.402;2023-08-01T12:42:49;4.05;;;2.53;;
15958;SDS011;8078;47.822;9.402;2023-08-01T12:45:14;2.30;;;2.10;;
15958;SDS011;8078;47.822;9.402;2023-08-01T12:47:40;2.28;;;2.00;;
15958;SDS011;8078;47.822;9.402;2023-08-01T12:50:05;2.17;;;1.77;;
15958;SDS011;8078;47.822;9.402;2023-08-01T12:52:31;2.55;;;1.70;;
15958;SDS011;8078;47.822;9.402;2023-08-01T12:54:57;2.80;;;1.70;;
15958;SDS011;8078;47.822;9.402;2023-08-01T12:57:23;2.45;;;1.90;;
15958;SDS011;8078;47.822;9.402;2023-08-01T12:59:48;2.30;;;2.10;;
15958;SDS011;8078;47.822;9.402;2023-08-01T13:02:14;1.80;;;1.65;;
15958;SDS011;8078;47.822;9.402;2023-08-01T13:04:39;3.65;;;2.20;;
15958;SDS011;8078;47.822;9.402;2023-08-01T13:07:05;4.28;;;2.10;;
15958;SDS011;8078;47.822;9.402;2023-08-01T13:09:31;2.42;;;1.80;;
15958;SDS011;8078;47.822;9.402;2023-08-01T13:11:56;2.28;;;2.08;;
15958;SDS011;8078;47.822;9.402;2023-08-01T13:14:23;2.65;;;1.60;;
15958;SDS011;8078;47.822;9.402;2023-08-01T13:16:49;1.83;;;1.70;;
15958;SDS011;8078;47.822;9.402;2023-08-01T13:19:15;2.05;;;1.75;;
15958;SDS011;8078;47.822;9.402;2023-08-01T13:21:40;2.20;;;1.60;;
15958;SDS011;8078;47.822;9.402;2023-08-01T13:24:06;1.70;;;1.60;;
15958;SDS011;8078;47.822;9.402;2023-08-01T13:26:31;2.00;;;1.50;;
15958;SDS011;8078;47.822;9.402;2023-08-01T13:28:57;1.80;;;1.70;;
15958;SDS011;8078;47.822;9.402;2023-08-01T13:31:24;2.17;;;1.83;;
15958;SDS011;8078;47.822;9.402;2023-08-01T13:33:50;2.83;;;1.40;;
15958;SDS011;8078;47.822;9.402;2023-08-01T13:36:19;1.77;;;1.67;;
15958;SDS011;8078;47.822;9.402;2023-08-01T13:38:44;2.25;;;1.63;;
15958;SDS011;8078;47.822;9.402;2023-08-01T13:41:10;2.22;;;1.90;;
15958;SDS011;8078;47.822;9.402;2023-08-01T13:43:36;2.97;;;1.52;;
15958;SDS011;8078;47.822;9.402;2023-08-01T13:46:17;1.60;;;1.50;;
15958;SDS011;8078;47.822;9.402;2023-08-01T13:48:45;2.22;;;1.38;;
15958;SDS011;8078;47.822;9.402;2023-08-01T13:51:11;1.75;;;1.23;;
15958;SDS011;8078;47.822;9.402;2023-08-01T13:53:40;1.65;;;1.40;;
15958;SDS011;8078;47.822;9.402;2023-08-01T13:56:11;1.27;;;1.17;;
15958;SDS011;8078;47.822;9.402;2023-08-01T13:58:38;1.08;;;0.88;;
15958;SDS011;8078;47.822;9.402;2023-08-01T14:01:05;0.95;;;0.90;;
15958;SDS011;8078;47.822;9.402;2023-08-01T14:03:34;1.10;;;1.00;;
15958;SDS011;8078;47.822;9.402;2023-08-01T14:06:06;0.90;;;0.90;;
15958;SDS011;8078;47.822;9.402;2023-08-01T14:08:33;0.85;;;0.85;;
15958;SDS011;8078;47.822;9.402;2023-08-01T14:10:59;1.10;;;1.00;;
15958;SDS011;8078;47.822;9.402;2023-08-01T14:13:26;2.08;;;1.10;;
15958;SDS011;8078;47.822;9.402;2023-08-01T14:15:51;0.98;;;0.93;;
15958;SDS011;8078;47.822;9.402;2023-08-01T14:18:17;1.00;;;1.00;;
15958;SDS011;8078;47.822;9.402;2023-08-01T14:20:43;1.67;;;1.00;;
15958;SDS011;8078;47.822;9.402;2023-08-01T14:23:08;1.30;;;1.20;;
15958;SDS011;8078;47.822;9.402;2023-08-01T14:25:34;2.15;;;1.30;;
15958;SDS011;8078;47.822;9.402;2023-08-01T14:27:59;1.38;;;1.27;;
15958;SDS011;8078;47.822;9.402;2023-08-01T14:30:25;1.50;;;1.40;;
15958;SDS011;8078;47.822;9.402;2023-08-01T14:32:51;1.20;;;1.10;;
15958;SDS011;8078;47.822;9.402;2023-08-01T14:35:16;1.50;;;1.38;;
15958;SDS011;8078;47.822;9.402;2023-08-01T14:37:42;2.78;;;1.40;;
15958;SDS011;8078;47.822;9.402;2023-08-01T14:40:10;1.40;;;1.30;;
15958;SDS011;8078;47.822;9.402;2023-08-01T14:42:36;1.60;;;1.45;;
15958;SDS011;8078;47.822;9.402;2023-08-01T14:45:02;2.67;;;1.67;;
15958;SDS011;8078;47.822;9.402;2023-08-01T14:47:27;1.95;;;1.48;;
15958;SDS011;8078;47.822;9.402;2023-08-01T14:49:55;1.98;;;1.48;;
15958;SDS011;8078;47.822;9.402;2023-08-01T14:52:21;1.60;;;1.50;;
15958;SDS011;8078;47.822;9.402;2023-08-01T14:54:47;2.08;;;1.40;;
15958;SDS011;8078;47.822;9.402;2023-08-01T14:57:13;2.10;;;1.73;;